sensor_id;sensor_type;location;lat;lon;timestamp;pressure;altitude;pressure_sealevel;temperature;humidity
25080;BME280;13071;48.868;9.996;2022-07-21T00:00:19;96756.09;;;20.03;100.00
25080;BME280;13071;48.868;9.996;2022-07-21T00:02:46;96770.19;;;20.01;100.00
25080;BME280;13071;48.868;9.996;2022-07-21T00:05:13;96775.28;;;19.99;100.00
25080;BME280;13071;48.868;9.996;2022-07-21T00:07:40;96785.53;;;20.13;100.00
25080;BME280;13071;48.868;9.996;2022-07-21T00:10:08;96782.38;;;20.07;100.00
25080;BME280;13071;48.868;9.996;2022-07-21T00:12:35;96776.91;;;20.11;100.00
25080;BME280;13071;48.868;9.996;2022-07-21T00:15:03;96779.22;;;20.05;100.00
25080;BME280;13071;48.868;9.996;2022-07-21T00:17:29;96772.94;;;20.08;100.00
25080;BME280;13071;48.868;9.996;2022-07-21T00:19:56;96776.09;;;20.10;100.00
25080;BME280;13071;48.868;9.996;2022-07-21T00:22:23;96778.06;;;20.13;100.00
25080;BME280;13071;48.868;9.996;2022-07-21T00:24:49;96765.53;;;20.19;100.00
25080;BME280;13071;48.868;9.996;2022-07-21T00:27:17;96770.66;;;20.24;100.00
25080;BME280;13071;48.868;9.996;2022-07-21T00:29:44;96782.06;;;20.34;100.00
25080;BME280;13071;48.868;9.996;2022-07-21T00:32:10;96782.88;;;20.31;100.00
25080;BME280;13071;48.868;9.996;2022-07-21T00:34:37;96779.31;;;20.26;100.00
25080;BME280;13071;48.868;9.996;2022-07-21T00:37:03;96780.88;;;20.27;100.00
25080;BME280;13071;48.868;9.996;2022-07-21T00:39:30;96793.84;;;20.31;100.00
25080;BME280;13071;48.868;9.996;2022-07-21T00:41:57;96791.06;;;20.23;100.00
25080;BME280;13071;48.868;9.996;2022-07-21T00:44:26;96788.28;;;20.16;100.00
25080;BME280;13071;48.868;9.996;2022-07-21T00:46:53;96800.50;;;20.22;100.00
25080;BME280;13071;48.868;9.996;2022-07-21T00:49:20;96803.16;;;20.08;100.00
25080;BME280;13071;48.868;9.996;2022-07-21T00:51:47;96806.75;;;20.12;100.00
25080;BME280;13071;48.868;9.996;2022-07-21T00:54:15;96792.97;;;20.05;100.00
25080;BME280;13071;48.868;9.996;2022-07-21T00:56:42;96799.22;;;19.99;100.00
25080;BME280;13071;48.868;9.996;2022-07-21T00:59:09;96808.63;;;19.94;100.00
25080;BME280;13071;48.868;9.996;2022-07-21T01:01:38;96820.38;;;19.91;100.00
25080;BME280;13071;48.868;9.996;2022-07-21T01:04:04;96823.13;;;19.95;100.00
25080;BME280;13071;48.868;9.996;2022-07-21T01:06:31;96825.53;;;20.03;100.00
25080;BME280;13071;48.868;9.996;2022-07-21T01:08:58;96813.34;;;20.01;100.00
25080;BME280;13071;48.868;9.996;2022-07-21T01:11:25;96820.75;;;19.86;100.00
25080;BME280;13071;48.868;9.996;2022-07-21T01:13:51;96824.72;;;19.92;100.00
25080;BME280;13071;48.868;9.996;2022-07-21T01:16:18;96824.72;;;19.96;100.00
25080;BME280;13071;48.868;9.996;2022-07-21T01:18:46;96825.44;;;19.86;100.00
25080;BME280;13071;48.868;9.996;2022-07-21T01:21:35;96806.28;;;19.93;100.00
25080;BME280;13071;48.868;9.996;2022-07-21T01:24:03;96797.19;;;19.85;100.00
25080;BME280;13071;48.868;9.996;2022-07-21T01:26:31;96808.19;;;19.85;100.00
25080;BME280;13071;48.868;9.996;2022-07-21T01:29:05;96793.66;;;19.84;100.00
25080;BME280;13071;48.868;9.996;2022-07-21T01:31:32;96797.56;;;19.80;100.00
25080;BME280;13071;48.868;9.996;2022-07-21T01:33:58;96818.38;;;19.81;100.00
25080;BME280;13071;48.868;9.996;2022-07-21T01:36:25;96825.81;;;19.80;100.00
25080;BME280;13071;48.868;9.996;2022-07-21T01:38:53;96818.72;;;19.72;100.00
25080;BME280;13071;48.868;9.996;2022-07-21T01:41:37;96825.81;;;19.84;100.00
25080;BME280;13071;48.868;9.996;2022-07-21T01:44:05;96819.19;;;19.89;100.00
25080;BME280;13071;48.868;9.996;2022-07-21T01:46:34;96815.69;;;19.95;100.00
25080;BME280;13071;48.868;9.996;2022-07-21T01:49:01;96803.16;;;19.98;100.00
25080;BME280;13071;48.868;9.996;2022-07-21T01:51:27;96792.13;;;19.91;100.00
25080;BME280;13071;48.868;9.996;2022-07-21T01:53:55;96798.34;;;19.77;100.00
25080;BME280;13071;48.868;9.996;2022-07-21T01:56:23;96799.94;;;19.78;100.00
25080;BME280;13071;48.868;9.996;2022-07-21T01:58:53;96806.16;;;19.75;100.00
25080;BME280;13071;48.868;9.996;2022-07-21T02:01:21;96805.06;;;19.83;100.00
25080;BME280;13071;48.868;9.996;2022-07-21T02:03:48;96800.72;;;19.82;100.00
25080;BME280;13071;48.868;9.996;2022-07-21T02:06:16;96782.25;;;19.75;100.00
25080;BME280;13071;48.868;9.996;2022-07-21T02:08:42;96781.06;;;19.73;100.00
25080;BME280;13071;48.868;9.996;2022-07-21T02:11:11;96805.38;;;19.74;100.00
25080;BME280;13071;48.868;9.996;2022-07-21T02:13:39;96817.47;;;19.59;100.00
25080;BME280;13071;48.868;9.996;2022-07-21T02:16:06;96818.28;;;19.63;100.00
25080;BME280;13071;48.868;9.996;2022-07-21T02:18:33;96820.63;;;19.65;100.00
25080;BME280;13071;48.868;9.996;2022-07-21T02:20:59;96825.31;;;19.61;100.00
25080;BME280;13071;48.868;9.996;2022-07-21T02:23:27;96846.47;;;19.53;100.00
25080;BME280;13071;48.868;9.996;2022-07-21T02:25:54;96863.75;;;19.57;100.00
25080;BME280;13071;48.868;9.996;2022-07-21T02:28:24;96859.41;;;19.53;100.00
25080;BME280;13071;48.868;9.996;2022-07-21T02:30:52;96862.56;;;19.58;100.00
25080;BME280;13071;48.868;9.996;2022-07-21T02:33:19;96882.88;;;19.47;100.00
25080;BME280;13071;48.868;9.996;2022-07-21T02:35:45;96889.09;;;19.44;100.00
25080;BME280;13071;48.868;9.996;2022-07-21T02:38:12;96889.97;;;19.51;100.00
25080;BME280;13071;48.868;9.996;2022-07-21T02:40:39;96900.56;;;19.53;100.00
25080;BME280;13071;48.868;9.996;2022-07-21T02:43:06;96902.13;;;19.54;100.00
25080;BME280;13071;48.868;9.996;2022-07-21T02:45:34;96913.19;;;19.64;100.00
25080;BME280;13071;48.868;9.996;2022-07-21T02:48:04;96900.22;;;19.58;100.00
25080;BME280;13071;48.868;9.996;2022-07-21T02:50:34;96909.19;;;19.51;100.00
25080;BME280;13071;48.868;9.996;2022-07-21T02:53:03;96902.63;;;19.63;100.00
25080;BME280;13071;48.868;9.996;2022-07-21T02:55:29;96890.41;;;19.60;100.00
25080;BME280;13071;48.868;9.996;2022-07-21T02:58:07;96859.78;;;19.51;100.00
25080;BME280;13071;48.868;9.996;2022-07-21T03:00:37;96859.94;;;19.25;100.00
25080;BME280;13071;48.868;9.996;2022-07-21T03:03:04;96861.59;;;19.33;100.00
25080;BME280;13071;48.868;9.996;2022-07-21T03:05:31;96850.56;;;19.29;100.00
25080;BME280;13071;48.868;9.996;2022-07-21T03:07:58;96861.63;;;19.40;100.00
25080;BME280;13071;48.868;9.996;2022-07-21T03:10:24;96867.19;;;19.47;100.00
25080;BME280;13071;48.868;9.996;2022-07-21T03:12:51;96884.91;;;19.53;100.00
25080;BME280;13071;48.868;9.996;2022-07-21T03:15:18;96870.03;;;19.58;100.00
25080;BME280;13071;48.868;9.996;2022-07-21T03:17:46;96881.41;;;19.60;100.00
25080;BME280;13071;48.868;9.996;2022-07-21T03:20:13;96871.19;;;19.60;100.00
25080;BME280;13071;48.868;9.996;2022-07-21T03:22:39;96882.31;;;19.78;100.00
25080;BME280;13071;48.868;9.996;2022-07-21T03:25:07;96877.13;;;19.69;100.00
25080;BME280;13071;48.868;9.996;2022-07-21T03:27:33;96890.13;;;19.72;100.00
25080;BME280;13071;48.868;9.996;2022-07-21T03:30:03;96873.28;;;19.77;100.00
25080;BME280;13071;48.868;9.996;2022-07-21T03:32:30;96872.84;;;19.72;100.00
25080;BME280;13071;48.868;9.996;2022-07-21T03:34:58;96871.19;;;19.60;100.00
25080;BME280;13071;48.868;9.996;2022-07-21T03:37:25;96869.25;;;19.64;100.00
25080;BME280;13071;48.868;9.996;2022-07-21T03:39:52;96888.09;;;19.66;100.00
25080;BME280;13071;48.868;9.996;2022-07-21T03:42:20;96868.03;;;19.55;100.00
25080;BME280;13071;48.868;9.996;2022-07-21T03:44:46;96865.72;;;19.60;100.00
25080;BME280;13071;48.868;9.996;2022-07-21T03:47:13;96862.19;;;19.60;100.00
25080;BME280;13071;48.868;9.996;2022-07-21T03:49:40;96862.53;;;19.55;100.00
25080;BME280;13071;48.868;9.996;2022-07-21T03:52:08;96865.69;;;19.57;100.00
25080;BME280;13071;48.868;9.996;2022-07-21T03:54:35;96869.63;;;19.59;100.00
25080;BME280;13071;48.868;9.996;2022-07-21T03:57:02;96870.03;;;19.61;100.00
25080;BME280;13071;48.868;9.996;2022-07-21T03:59:29;96864.91;;;19.60;100.00
25080;BME280;13071;48.868;9.996;2022-07-21T04:01:55;96874.38;;;19.62;100.00
25080;BME280;13071;48.868;9.996;2022-07-21T04:04:22;96876.72;;;19.64;100.00
25080;BME280;13071;48.868;9.996;2022-07-21T04:06:48;96881.81;;;19.65;100.00
25080;BME280;13071;48.868;9.996;2022-07-21T04:09:16;96887.69;;;19.64;100.00
25080;BME280;13071;48.868;9.996;2022-07-21T04:11:43;96898.00;;;19.81;100.00
25080;BME280;13071;48.868;9.996;2022-07-21T04:14:10;96897.22;;;19.77;100.00
25080;BME280;13071;48.868;9.996;2022-07-21T04:16:37;96906.63;;;19.79;100.00
25080;BME280;13071;48.868;9.996;2022-07-21T04:19:03;96905.78;;;19.68;100.00
25080;BME280;13071;48.868;9.996;2022-07-21T04:21:30;96907.66;;;19.57;100.00
25080;BME280;13071;48.868;9.996;2022-07-21T04:23:57;96911.63;;;19.63;100.00
25080;BME280;13071;48.868;9.996;2022-07-21T04:26:24;96920.03;;;19.88;100.00
25080;BME280;13071;48.868;9.996;2022-07-21T04:28:53;96916.78;;;19.68;100.00
25080;BME280;13071;48.868;9.996;2022-07-21T04:31:19;96913.94;;;19.58;100.00
25080;BME280;13071;48.868;9.996;2022-07-21T04:33:46;96921.84;;;19.63;100.00
25080;BME280;13071;48.868;9.996;2022-07-21T04:36:12;96918.66;;;19.61;100.00
25080;BME280;13071;48.868;9.996;2022-07-21T04:38:39;96912.00;;;19.58;100.00
25080;BME280;13071;48.868;9.996;2022-07-21T04:41:06;96915.97;;;19.68;100.00
25080;BME280;13071;48.868;9.996;2022-07-21T04:43:34;96915.16;;;19.64;100.00
25080;BME280;13071;48.868;9.996;2022-07-21T04:46:00;96916.34;;;19.63;100.00
25080;BME280;13071;48.868;9.996;2022-07-21T04:48:27;96923.09;;;19.76;100.00
25080;BME280;13071;48.868;9.996;2022-07-21T04:50:54;96926.59;;;19.73;100.00
25080;BME280;13071;48.868;9.996;2022-07-21T04:53:21;96930.13;;;19.73;100.00
25080;BME280;13071;48.868;9.996;2022-07-21T04:55:47;96937.09;;;19.64;100.00
25080;BME280;13071;48.868;9.996;2022-07-21T04:58:15;96935.59;;;19.70;100.00
25080;BME280;13071;48.868;9.996;2022-07-21T05:00:43;96943.09;;;19.73;100.00
25080;BME280;13071;48.868;9.996;2022-07-21T05:03:10;96944.25;;;19.72;100.00
25080;BME280;13071;48.868;9.996;2022-07-21T05:05:38;96943.56;;;19.86;100.00
25080;BME280;13071;48.868;9.996;2022-07-21T05:08:05;96949.13;;;19.96;100.00
25080;BME280;13071;48.868;9.996;2022-07-21T05:10:32;96946.72;;;19.88;100.00
25080;BME280;13071;48.868;9.996;2022-07-21T05:12:58;96950.25;;;19.88;100.00
25080;BME280;13071;48.868;9.996;2022-07-21T05:15:25;96951.41;;;19.87;100.00
25080;BME280;13071;48.868;9.996;2022-07-21T05:17:53;96957.69;;;19.88;100.00
25080;BME280;13071;48.868;9.996;2022-07-21T05:20:20;96951.00;;;19.85;100.00
25080;BME280;13071;48.868;9.996;2022-07-21T05:22:46;96947.06;;;19.82;100.00
25080;BME280;13071;48.868;9.996;2022-07-21T05:25:13;96941.19;;;19.84;100.00
25080;BME280;13071;48.868;9.996;2022-07-21T05:27:40;96951.06;;;19.92;100.00
25080;BME280;13071;48.868;9.996;2022-07-21T05:30:08;96953.44;;;19.97;100.00
25080;BME280;13071;48.868;9.996;2022-07-21T05:32:35;96958.53;;;19.95;100.00
25080;BME280;13071;48.868;9.996;2022-07-21T05:35:03;96962.84;;;19.96;100.00
25080;BME280;13071;48.868;9.996;2022-07-21T05:37:33;96970.69;;;19.94;100.00
25080;BME280;13071;48.868;9.996;2022-07-21T05:40:00;96972.25;;;19.95;100.00
25080;BME280;13071;48.868;9.996;2022-07-21T05:42:27;96969.53;;;19.99;100.00
25080;BME280;13071;48.868;9.996;2022-07-21T05:44:53;96971.91;;;20.04;100.00
25080;BME280;13071;48.868;9.996;2022-07-21T05:47:20;96968.84;;;20.12;100.00
25080;BME280;13071;48.868;9.996;2022-07-21T05:49:47;96964.16;;;20.20;100.00
25080;BME280;13071;48.868;9.996;2022-07-21T05:52:15;96963.44;;;20.30;100.00
25080;BME280;13071;48.868;9.996;2022-07-21T05:54:41;96963.97;;;20.46;100.00
25080;BME280;13071;48.868;9.996;2022-07-21T05:57:08;96957.34;;;20.61;100.00
25080;BME280;13071;48.868;9.996;2022-07-21T05:59:34;96960.47;;;20.56;100.00
25080;BME280;13071;48.868;9.996;2022-07-21T06:02:01;96958.50;;;20.60;100.00
25080;BME280;13071;48.868;9.996;2022-07-21T06:04:28;96952.59;;;20.55;100.00
25080;BME280;13071;48.868;9.996;2022-07-21T06:06:54;96957.75;;;20.67;100.00
25080;BME280;13071;48.868;9.996;2022-07-21T06:09:22;96968.34;;;20.68;100.00
25080;BME280;13071;48.868;9.996;2022-07-21T06:11:49;96978.56;;;20.68;100.00
25080;BME280;13071;48.868;9.996;2022-07-21T06:14:15;96974.63;;;20.65;100.00
25080;BME280;13071;48.868;9.996;2022-07-21T06:16:42;96980.53;;;20.67;100.00
25080;BME280;13071;48.868;9.996;2022-07-21T06:19:09;96989.22;;;20.80;100.00
25080;BME280;13071;48.868;9.996;2022-07-21T06:21:35;96991.19;;;20.83;100.00
25080;BME280;13071;48.868;9.996;2022-07-21T06:24:02;96991.22;;;20.90;100.00
25080;BME280;13071;48.868;9.996;2022-07-21T06:26:30;96993.59;;;20.92;100.00
25080;BME280;13071;48.868;9.996;2022-07-21T06:28:57;96990.88;;;21.02;100.00
25080;BME280;13071;48.868;9.996;2022-07-21T06:31:24;96994.78;;;20.94;100.00
25080;BME280;13071;48.868;9.996;2022-07-21T06:33:50;96999.44;;;20.80;100.00
25080;BME280;13071;48.868;9.996;2022-07-21T06:36:17;97000.31;;;21.08;98.38
25080;BME280;13071;48.868;9.996;2022-07-21T06:38:44;96999.97;;;21.17;98.89
25080;BME280;13071;48.868;9.996;2022-07-21T06:41:11;97007.09;;;21.29;100.00
25080;BME280;13071;48.868;9.996;2022-07-21T06:43:39;97001.44;;;20.86;99.73
25080;BME280;13071;48.868;9.996;2022-07-21T06:46:05;97002.94;;;20.66;100.00
25080;BME280;13071;48.868;9.996;2022-07-21T06:48:32;97006.94;;;20.86;99.81
25080;BME280;13071;48.868;9.996;2022-07-21T06:50:59;97004.09;;;20.61;98.98
25080;BME280;13071;48.868;9.996;2022-07-21T06:53:26;97008.16;;;21.03;100.00
25080;BME280;13071;48.868;9.996;2022-07-21T06:55:53;97005.53;;;21.38;94.26
25080;BME280;13071;48.868;9.996;2022-07-21T06:58:21;97005.50;;;21.28;96.82
25080;BME280;13071;48.868;9.996;2022-07-21T07:00:50;97014.22;;;21.86;93.38
25080;BME280;13071;48.868;9.996;2022-07-21T07:03:18;97018.97;;;21.96;94.72
25080;BME280;13071;48.868;9.996;2022-07-21T07:05:46;97021.72;;;22.11;94.08
25080;BME280;13071;48.868;9.996;2022-07-21T07:08:14;97016.19;;;21.65;92.74
25080;BME280;13071;48.868;9.996;2022-07-21T07:10:41;97015.41;;;21.78;93.71
25080;BME280;13071;48.868;9.996;2022-07-21T07:13:08;97016.19;;;21.93;89.52
25080;BME280;13071;48.868;9.996;2022-07-21T07:15:35;97020.06;;;22.52;88.77
25080;BME280;13071;48.868;9.996;2022-07-21T07:18:03;97017.28;;;22.73;88.22
25080;BME280;13071;48.868;9.996;2022-07-21T07:20:30;97021.16;;;22.87;87.23
25080;BME280;13071;48.868;9.996;2022-07-21T07:22:57;97023.59;;;22.74;84.88
25080;BME280;13071;48.868;9.996;2022-07-21T07:25:24;97025.22;;;22.36;87.35
25080;BME280;13071;48.868;9.996;2022-07-21T07:27:50;97031.94;;;22.17;87.00
25080;BME280;13071;48.868;9.996;2022-07-21T07:30:19;97020.91;;;21.61;88.08
25080;BME280;13071;48.868;9.996;2022-07-21T07:32:46;97034.31;;;22.19;85.94
25080;BME280;13071;48.868;9.996;2022-07-21T07:35:15;97020.44;;;22.61;83.22
25080;BME280;13071;48.868;9.996;2022-07-21T07:37:43;97024.47;;;22.25;86.73
25080;BME280;13071;48.868;9.996;2022-07-21T07:40:12;97031.91;;;22.35;85.65
25080;BME280;13071;48.868;9.996;2022-07-21T07:42:40;97033.41;;;22.68;83.93
25080;BME280;13071;48.868;9.996;2022-07-21T07:45:08;97025.88;;;22.86;82.88
25080;BME280;13071;48.868;9.996;2022-07-21T07:47:36;97021.78;;;23.22;80.61
25080;BME280;13071;48.868;9.996;2022-07-21T07:50:04;97018.84;;;23.54;81.41
25080;BME280;13071;48.868;9.996;2022-07-21T07:52:32;97023.81;;;23.74;76.98
25080;BME280;13071;48.868;9.996;2022-07-21T07:54:59;97017.13;;;23.75;79.46
25080;BME280;13071;48.868;9.996;2022-07-21T07:57:29;97019.34;;;23.94;76.90
25080;BME280;13071;48.868;9.996;2022-07-21T07:59:56;97024.19;;;23.79;77.69
25080;BME280;13071;48.868;9.996;2022-07-21T08:02:22;97015.09;;;24.30;75.18
25080;BME280;13071;48.868;9.996;2022-07-21T08:04:49;97016.88;;;24.03;73.77
25080;BME280;13071;48.868;9.996;2022-07-21T08:07:16;97013.16;;;23.10;77.28
25080;BME280;13071;48.868;9.996;2022-07-21T08:09:44;97022.38;;;22.78;77.87
25080;BME280;13071;48.868;9.996;2022-07-21T08:12:10;97020.81;;;23.57;77.90
25080;BME280;13071;48.868;9.996;2022-07-21T08:14:38;97023.63;;;24.02;76.48
25080;BME280;13071;48.868;9.996;2022-07-21T08:17:05;97018.25;;;24.29;73.03
25080;BME280;13071;48.868;9.996;2022-07-21T08:19:31;97019.16;;;24.56;73.37
25080;BME280;13071;48.868;9.996;2022-07-21T08:21:58;97014.28;;;24.67;73.37
25080;BME280;13071;48.868;9.996;2022-07-21T08:24:26;97022.44;;;23.99;76.04
25080;BME280;13071;48.868;9.996;2022-07-21T08:26:54;97015.56;;;24.22;75.62
25080;BME280;13071;48.868;9.996;2022-07-21T08:29:21;97024.03;;;24.79;74.28
25080;BME280;13071;48.868;9.996;2022-07-21T08:31:48;97015.00;;;25.09;70.67
25080;BME280;13071;48.868;9.996;2022-07-21T08:34:14;97018.91;;;25.11;73.72
25080;BME280;13071;48.868;9.996;2022-07-21T08:36:41;97020.41;;;24.07;75.74
25080;BME280;13071;48.868;9.996;2022-07-21T08:39:08;97025.91;;;23.59;77.42
25080;BME280;13071;48.868;9.996;2022-07-21T08:41:35;97019.69;;;23.99;73.50
25080;BME280;13071;48.868;9.996;2022-07-21T08:44:03;97036.16;;;22.82;77.02
25080;BME280;13071;48.868;9.996;2022-07-21T08:46:33;97031.97;;;23.33;76.20
25080;BME280;13071;48.868;9.996;2022-07-21T08:49:02;97025.53;;;23.57;77.25
25080;BME280;13071;48.868;9.996;2022-07-21T08:51:31;97030.19;;;24.22;73.43
25080;BME280;13071;48.868;9.996;2022-07-21T08:53:58;97032.00;;;23.91;72.61
25080;BME280;13071;48.868;9.996;2022-07-21T08:56:25;97033.16;;;24.42;69.26
25080;BME280;13071;48.868;9.996;2022-07-21T08:58:51;97039.06;;;24.44;70.94
25080;BME280;13071;48.868;9.996;2022-07-21T09:01:19;97029.50;;;24.48;70.64
25080;BME280;13071;48.868;9.996;2022-07-21T09:03:49;97029.25;;;23.25;72.81
25080;BME280;13071;48.868;9.996;2022-07-21T09:06:15;97029.66;;;23.86;71.12
25080;BME280;13071;48.868;9.996;2022-07-21T09:08:44;97029.84;;;24.17;70.90
25080;BME280;13071;48.868;9.996;2022-07-21T09:11:17;97027.66;;;24.38;69.06
25080;BME280;13071;48.868;9.996;2022-07-21T09:13:46;97030.63;;;24.17;67.67
25080;BME280;13071;48.868;9.996;2022-07-21T09:16:33;97025.22;;;24.44;66.41
25080;BME280;13071;48.868;9.996;2022-07-21T09:19:00;97022.34;;;24.55;68.53
25080;BME280;13071;48.868;9.996;2022-07-21T09:21:27;97025.56;;;24.87;69.17
25080;BME280;13071;48.868;9.996;2022-07-21T09:24:10;97020.53;;;24.75;67.73
25080;BME280;13071;48.868;9.996;2022-07-21T09:27:06;97017.78;;;24.75;65.72
25080;BME280;13071;48.868;9.996;2022-07-21T09:29:36;97026.50;;;24.32;66.33
25080;BME280;13071;48.868;9.996;2022-07-21T09:32:22;97029.50;;;24.48;67.67
25080;BME280;13071;48.868;9.996;2022-07-21T09:34:50;97019.63;;;24.47;66.59
25080;BME280;13071;48.868;9.996;2022-07-21T09:37:18;97020.50;;;23.93;67.56
25080;BME280;13071;48.868;9.996;2022-07-21T09:39:47;97020.34;;;24.18;68.95
25080;BME280;13071;48.868;9.996;2022-07-21T09:42:16;97025.88;;;24.18;68.02
25080;BME280;13071;48.868;9.996;2022-07-21T09:44:45;97020.38;;;24.10;68.84
25080;BME280;13071;48.868;9.996;2022-07-21T09:47:15;97026.25;;;24.16;70.48
25080;BME280;13071;48.868;9.996;2022-07-21T09:49:43;97020.97;;;24.36;67.64
25080;BME280;13071;48.868;9.996;2022-07-21T09:52:23;97019.28;;;24.45;66.19
25080;BME280;13071;48.868;9.996;2022-07-21T09:54:50;97033.25;;;24.69;67.29
25080;BME280;13071;48.868;9.996;2022-07-21T09:57:18;97019.59;;;24.88;66.17
25080;BME280;13071;48.868;9.996;2022-07-21T09:59:46;97022.44;;;25.15;67.54
25080;BME280;13071;48.868;9.996;2022-07-21T10:02:16;97025.91;;;25.23;66.09
25080;BME280;13071;48.868;9.996;2022-07-21T10:04:46;97013.34;;;25.15;65.56
25080;BME280;13071;48.868;9.996;2022-07-21T10:07:15;97017.91;;;25.59;64.77
25080;BME280;13071;48.868;9.996;2022-07-21T10:09:42;97019.03;;;25.88;62.33
25080;BME280;13071;48.868;9.996;2022-07-21T10:12:09;97019.41;;;26.13;61.44
25080;BME280;13071;48.868;9.996;2022-07-21T10:14:37;97009.47;;;26.39;63.36
25080;BME280;13071;48.868;9.996;2022-07-21T10:17:04;97017.94;;;26.52;60.35
25080;BME280;13071;48.868;9.996;2022-07-21T10:19:35;97012.78;;;26.74;60.89
25080;BME280;13071;48.868;9.996;2022-07-21T10:22:09;97023.50;;;26.52;61.57
25080;BME280;13071;48.868;9.996;2022-07-21T10:24:43;97017.53;;;26.30;63.40
25080;BME280;13071;48.868;9.996;2022-07-21T10:27:11;97013.66;;;26.47;60.02
25080;BME280;13071;48.868;9.996;2022-07-21T10:29:54;97014.53;;;26.64;62.66
25080;BME280;13071;48.868;9.996;2022-07-21T10:32:22;97018.38;;;26.70;61.88
25080;BME280;13071;48.868;9.996;2022-07-21T10:34:50;97018.22;;;26.57;60.89
25080;BME280;13071;48.868;9.996;2022-07-21T10:37:48;97011.69;;;24.90;64.62
25080;BME280;13071;48.868;9.996;2022-07-21T10:40:37;97016.81;;;24.10;68.17
25080;BME280;13071;48.868;9.996;2022-07-21T10:43:36;97013.53;;;23.81;68.64
25080;BME280;13071;48.868;9.996;2022-07-21T10:46:36;97008.25;;;23.42;70.76
25080;BME280;13071;48.868;9.996;2022-07-21T10:49:04;97017.06;;;23.16;71.87
25080;BME280;13071;48.868;9.996;2022-07-21T10:51:33;97005.84;;;23.51;71.36
25080;BME280;13071;48.868;9.996;2022-07-21T10:54:24;97014.75;;;23.73;70.55
25080;BME280;13071;48.868;9.996;2022-07-21T10:57:23;97004.84;;;24.65;69.74
25080;BME280;13071;48.868;9.996;2022-07-21T11:00:19;97005.56;;;25.33;65.91
25080;BME280;13071;48.868;9.996;2022-07-21T11:02:48;97004.75;;;25.63;64.69
25080;BME280;13071;48.868;9.996;2022-07-21T11:05:15;96997.94;;;24.80;65.86
25080;BME280;13071;48.868;9.996;2022-07-21T11:08:10;96996.81;;;25.65;67.54
25080;BME280;13071;48.868;9.996;2022-07-21T11:10:40;96999.38;;;24.95;66.45
25080;BME280;13071;48.868;9.996;2022-07-21T11:13:07;96989.94;;;25.46;67.88
25080;BME280;13071;48.868;9.996;2022-07-21T11:15:57;96987.31;;;26.12;64.66
25080;BME280;13071;48.868;9.996;2022-07-21T11:18:25;96984.47;;;26.16;63.05
25080;BME280;13071;48.868;9.996;2022-07-21T11:21:10;96979.91;;;26.29;63.74
25080;BME280;13071;48.868;9.996;2022-07-21T11:23:40;96967.84;;;26.59;62.76
25080;BME280;13071;48.868;9.996;2022-07-21T11:26:09;96942.22;;;26.71;62.03
25080;BME280;13071;48.868;9.996;2022-07-21T11:28:37;96955.44;;;26.83;58.32
25080;BME280;13071;48.868;9.996;2022-07-21T11:31:08;96960.56;;;26.85;57.92
25080;BME280;13071;48.868;9.996;2022-07-21T11:33:36;96972.47;;;27.05;57.94
25080;BME280;13071;48.868;9.996;2022-07-21T11:36:03;96962.31;;;27.15;57.97
25080;BME280;13071;48.868;9.996;2022-07-21T11:38:30;96957.16;;;27.33;58.29
25080;BME280;13071;48.868;9.996;2022-07-21T11:43:49;96953.94;;;27.18;55.82
25080;BME280;13071;48.868;9.996;2022-07-21T11:46:16;96961.16;;;26.96;57.74
25080;BME280;13071;48.868;9.996;2022-07-21T11:48:42;96942.56;;;26.73;57.74
25080;BME280;13071;48.868;9.996;2022-07-21T11:51:09;96947.06;;;26.87;59.45
25080;BME280;13071;48.868;9.996;2022-07-21T11:53:43;96953.75;;;27.25;59.04
25080;BME280;13071;48.868;9.996;2022-07-21T11:56:13;96956.75;;;26.98;59.10
25080;BME280;13071;48.868;9.996;2022-07-21T11:58:41;96950.34;;;26.19;60.07
25080;BME280;13071;48.868;9.996;2022-07-21T12:01:09;96950.69;;;26.64;59.41
25080;BME280;13071;48.868;9.996;2022-07-21T12:03:46;96921.16;;;26.54;58.06
25080;BME280;13071;48.868;9.996;2022-07-21T12:06:13;96937.38;;;26.95;59.16
25080;BME280;13071;48.868;9.996;2022-07-21T12:08:42;96933.81;;;26.94;58.55
25080;BME280;13071;48.868;9.996;2022-07-21T12:11:10;96931.06;;;26.12;61.22
25080;BME280;13071;48.868;9.996;2022-07-21T12:13:54;96936.25;;;26.92;57.52
25080;BME280;13071;48.868;9.996;2022-07-21T12:16:22;96926.41;;;26.68;59.33
25080;BME280;13071;48.868;9.996;2022-07-21T12:18:49;96924.94;;;26.63;59.77
25080;BME280;13071;48.868;9.996;2022-07-21T12:21:15;96913.69;;;27.06;57.81
25080;BME280;13071;48.868;9.996;2022-07-21T12:23:42;96920.06;;;27.39;57.35
25080;BME280;13071;48.868;9.996;2022-07-21T12:26:20;96919.25;;;27.59;54.72
25080;BME280;13071;48.868;9.996;2022-07-21T12:28:49;96929.41;;;27.49;55.58
25080;BME280;13071;48.868;9.996;2022-07-21T12:31:19;96925.16;;;27.77;55.69
25080;BME280;13071;48.868;9.996;2022-07-21T12:33:49;96924.44;;;27.89;54.01
25080;BME280;13071;48.868;9.996;2022-07-21T12:36:19;96911.81;;;28.17;53.62
25080;BME280;13071;48.868;9.996;2022-07-21T12:38:49;96918.00;;;27.92;54.86
25080;BME280;13071;48.868;9.996;2022-07-21T12:41:17;96914.88;;;27.90;56.77
25080;BME280;13071;48.868;9.996;2022-07-21T12:43:53;96918.31;;;28.10;54.97
25080;BME280;13071;48.868;9.996;2022-07-21T12:46:19;96909.88;;;28.30;54.21
25080;BME280;13071;48.868;9.996;2022-07-21T12:48:47;96923.50;;;28.12;54.58
25080;BME280;13071;48.868;9.996;2022-07-21T12:51:16;96912.47;;;27.92;55.93
25080;BME280;13071;48.868;9.996;2022-07-21T12:53:47;96910.94;;;28.04;54.47
25080;BME280;13071;48.868;9.996;2022-07-21T12:56:16;96915.41;;;28.01;55.12
25080;BME280;13071;48.868;9.996;2022-07-21T12:58:43;96906.38;;;27.81;54.32
25080;BME280;13071;48.868;9.996;2022-07-21T13:01:11;96903.19;;;27.50;54.06
25080;BME280;13071;48.868;9.996;2022-07-21T13:03:38;96916.72;;;26.96;57.00
25080;BME280;13071;48.868;9.996;2022-07-21T13:06:07;96909.25;;;26.93;56.70